首页
METAR-TAF:

METAR-TAF

机场 :

Havre-Saint-Pierre, 魁北克, 加拿大

纬度: 50-17N, 经度: 063-37W, 海拔: 33米

当前天气观测

该预报发布于43分钟前的23:00 UTC
风速11节,风向东转东南,有时为17节阵风
温度 15°C
湿度 94%
气压 1006 hPa
能見度: 14.5公里
阴天层高于400英尺

METAR: CYGV 152300Z AUTO 11011G17KT 9SM OVC004 15/14 A2972 RMK SLP068 DENSITY ALT 400FT

时间: 19:43 (23:43 UTC)

预报

该预报发布于4小时和3分钟前的19:40 UTC
预报有效从15日的 20点(UTC)到 16日的 08点(UTC)
风速15节,风向东转东南,有时为25节阵风
能見度: 10公里
多云层高于1000英尺
阴天层高于6000英尺
短暂存在
从 15日的 20点(UTC)到 15日的 23点(UTC)
能見度: 4.8公里
多云层高于600英尺
阴天层高于1000英尺
小阵雨, 轻雾
从 15日的 2300点(UTC)
风速12节,风向,有时为22节阵风
能見度: 3.2公里
阴天层高于400英尺
小阵雨, 轻雾
短暂存在
从 15日的 23点(UTC)到 16日的 02点(UTC)
能見度: 9.7公里
阴天层高于800英尺
小毛毛雨, 轻雾
从 16日的 0200点(UTC)
风速12节,风向,有时为22节阵风
能見度: 2.4公里
阴天层高于200英尺
小阵雨, 小毛毛雨, 轻雾
成为
从 16日的 04点(UTC)到 16日的 06点(UTC)
风速8节,风向

TAF: CYGV 151940Z 1520/1608 12015G25KT P6SM BKN010 OVC060 TEMPO 1520/1523 3SM -SHRA BR BKN006 OVC010 FM152300 10012G22KT 2SM -SHRA BR OVC004 TEMPO 1523/1602 6SM -DZ BR OVC008 FM160200 08012G22KT 1 1/2SM -SHRA -DZ BR OVC002 BECMG 1604/1606 08008KT RMK FCST BASED ON AUTO OBS. NXT FCST BY 160200Z

超过4000个机场的气象观测和天气预报(METAR&TAF报告)。

可查询的气象台以黄色和红色小点在地图上表示。

将鼠标移到小点上方,可查看气象台名称。

然后点击查看天气观测和预报。

如需切换地图:点击带黑十字的绿色按钮放大地图;点击带横线的绿色按钮缩小地图;或者点击绿色箭头查看邻近地区的地图。


METAR-TAF: